createdAt,value
2018-05-25T00:01:09.780Z,70.53
2018-05-25T00:04:33.159Z,70.61
2018-05-25T00:07:56.626Z,69.83
2018-05-25T00:11:20.042Z,70.04
2018-05-25T00:14:43.705Z,70.06
2018-05-25T00:18:07.245Z,70.23
2018-05-25T00:21:30.635Z,71.02
2018-05-25T00:24:54.141Z,71.29
2018-05-25T00:28:17.639Z,71.61
2018-05-25T00:31:41.027Z,71.07
2018-05-25T00:35:04.434Z,71.76
2018-05-25T00:38:27.958Z,72.14
2018-05-25T00:41:51.355Z,71.89
2018-05-25T00:45:14.757Z,72.61
2018-05-25T00:48:38.184Z,73.41
2018-05-25T00:52:01.585Z,72.37
2018-05-25T00:55:40.715Z,72.29
2018-05-25T00:59:05.289Z,72.83
2018-05-25T01:02:28.685Z,72.32
2018-05-25T01:05:52.204Z,73.58
2018-05-25T01:09:15.579Z,73.64
2018-05-25T01:12:41.243Z,73.35
2018-05-25T01:16:05.627Z,73.49
2018-05-25T01:19:30.121Z,72.69
2018-05-25T01:22:55.663Z,73.15
2018-05-25T01:26:19.101Z,74.07
2018-05-25T01:29:42.516Z,73.58
2018-05-25T01:33:05.921Z,74.00
2018-05-25T01:36:29.376Z,73.59
2018-05-25T01:39:52.807Z,73.73
2018-05-25T01:43:16.195Z,74.03
2018-05-25T01:46:39.809Z,74.68
2018-05-25T01:50:03.110Z,74.62
2018-05-25T01:53:26.738Z,74.47
2018-05-25T01:56:50.029Z,74.62
2018-05-25T02:00:13.425Z,76.14
2018-05-25T02:03:36.905Z,75.44
2018-05-25T02:07:00.320Z,75.93
2018-05-25T02:10:23.729Z,75.04
2018-05-25T02:13:48.678Z,74.78
2018-05-25T02:17:12.697Z,74.82
2018-05-25T02:20:36.329Z,74.96
2018-05-25T02:24:01.687Z,75.72
2018-05-25T02:27:25.091Z,75.72
2018-05-25T02:30:48.696Z,75.74
2018-05-25T02:34:14.103Z,76.53
2018-05-25T02:37:37.539Z,76.35
2018-05-25T02:41:01.012Z,76.70
2018-05-25T02:44:24.458Z,76.40
2018-05-25T02:47:47.799Z,76.63
2018-05-25T02:51:11.407Z,76.41
2018-05-25T02:54:34.726Z,76.33
2018-05-25T02:57:58.132Z,76.05
2018-05-25T03:01:21.652Z,75.65
2018-05-25T03:04:45.039Z,75.51
2018-05-25T03:08:10.574Z,76.02
2018-05-25T03:11:34.039Z,76.43
2018-05-25T03:14:58.905Z,76.89
2018-05-25T03:18:23.166Z,76.41
2018-05-25T03:21:48.657Z,77.08
2018-05-25T03:25:11.966Z,76.61
2018-05-25T03:28:35.349Z,77.14
2018-05-25T03:31:58.797Z,77.70
2018-05-25T03:35:22.285Z,77.37
2018-05-25T03:38:45.607Z,77.49
2018-05-25T03:42:09.161Z,77.01
2018-05-25T03:45:34.617Z,76.76
2018-05-25T03:48:58.067Z,77.70
2018-05-25T03:52:23.553Z,77.86
2018-05-25T03:55:46.985Z,78.10
2018-05-25T03:59:30.233Z,78.04
2018-05-25T04:02:54.923Z,78.32
2018-05-25T04:06:19.713Z,78.35
2018-05-25T04:09:43.777Z,77.91
2018-05-25T04:13:07.227Z,78.10
2018-05-25T04:16:30.648Z,78.00
2018-05-25T04:19:54.113Z,77.94
2018-05-25T04:23:17.538Z,78.08
2018-05-25T04:26:43.107Z,77.88
2018-05-25T04:30:08.837Z,77.87
2018-05-25T04:33:32.173Z,77.89
2018-05-25T04:36:55.488Z,77.66
2018-05-25T04:40:19.030Z,78.47
2018-05-25T04:43:42.391Z,77.59
2018-05-25T04:47:05.854Z,76.59
2018-05-25T04:50:29.238Z,76.03
2018-05-25T04:53:52.649Z,78.07
2018-05-25T04:57:16.274Z,78.31
2018-05-25T05:00:41.680Z,77.35
2018-05-25T05:04:07.275Z,76.46
2018-05-25T05:07:32.722Z,76.66
2018-05-25T05:10:56.088Z,75.90
2018-05-25T05:14:19.540Z,76.15
2018-05-25T05:17:42.922Z,75.44
2018-05-25T05:21:06.383Z,76.61
2018-05-25T05:24:29.985Z,74.23
2018-05-25T05:27:53.349Z,73.94
2018-05-25T05:31:16.822Z,74.94
2018-05-25T05:34:42.203Z,74.12
2018-05-25T05:38:06.616Z,74.01
2018-05-25T05:41:30.150Z,73.41
2018-05-25T05:44:55.695Z,72.44
2018-05-25T05:48:19.281Z,72.58
2018-05-25T05:51:42.815Z,72.72
2018-05-25T05:55:06.128Z,73.42
2018-05-25T05:58:29.484Z,72.32
2018-05-25T06:01:52.789Z,71.33
2018-05-25T06:05:16.062Z,71.91
2018-05-25T06:08:39.349Z,70.83
2018-05-25T06:12:02.653Z,70.29
2018-05-25T06:15:25.945Z,70.42
2018-05-25T06:18:50.065Z,69.88
2018-05-25T06:22:13.343Z,68.46
2018-05-25T06:25:36.613Z,68.90
2018-05-25T06:28:59.893Z,68.22
2018-05-25T06:32:23.638Z,68.19
2018-05-25T06:35:46.941Z,67.33
2018-05-25T06:39:10.997Z,66.80
2018-05-25T06:42:34.268Z,65.83
2018-05-25T06:45:58.306Z,65.41
2018-05-25T06:49:21.612Z,65.04
2018-05-25T06:52:44.909Z,65.05
2018-05-25T06:56:08.528Z,64.44
2018-05-25T06:59:31.955Z,63.68
2018-05-25T07:02:55.242Z,63.15
2018-05-25T07:06:19.411Z,62.18
2018-05-25T07:09:42.826Z,61.96
2018-05-25T07:13:06.106Z,61.71
2018-05-25T07:16:29.386Z,61.95
2018-05-25T07:19:52.681Z,61.34
2018-05-25T07:23:16.020Z,60.81
2018-05-25T07:26:39.297Z,61.66
2018-05-25T07:30:02.613Z,60.82
2018-05-25T07:33:26.134Z,60.85
2018-05-25T07:36:49.546Z,59.82
2018-05-25T07:40:12.868Z,59.24
2018-05-25T07:43:36.916Z,58.71
2018-05-25T07:47:00.214Z,58.09
2018-05-25T07:50:23.567Z,56.65
2018-05-25T07:53:46.836Z,56.15
2018-05-25T07:57:10.175Z,56.03
2018-05-25T08:00:33.560Z,54.91
2018-05-25T08:03:56.845Z,55.25
2018-05-25T08:07:20.134Z,54.86
2018-05-25T08:10:43.413Z,53.41
2018-05-25T08:14:06.736Z,53.36
2018-05-25T08:17:30.835Z,54.22
2018-05-25T08:20:54.889Z,53.54
2018-05-25T08:24:18.175Z,54.16
2018-05-25T08:27:41.541Z,52.37
2018-05-25T08:31:05.627Z,51.73
2018-05-25T08:34:28.916Z,51.45
2018-05-25T08:37:52.232Z,50.84
2018-05-25T08:41:15.510Z,50.02
2018-05-25T08:44:38.932Z,51.03
2018-05-25T08:48:02.241Z,50.51
2018-05-25T08:51:25.532Z,49.98
2018-05-25T08:54:48.824Z,49.01
2018-05-25T08:58:12.873Z,50.31
2018-05-25T09:01:36.152Z,49.74
2018-05-25T09:04:59.434Z,48.70
2018-05-25T09:08:22.917Z,48.27
2018-05-25T09:11:47.447Z,47.69
2018-05-25T09:15:11.671Z,48.08
2018-05-25T09:18:35.701Z,45.86
2018-05-25T09:21:59.285Z,45.46
2018-05-25T09:25:22.791Z,45.04
2018-05-25T09:28:46.083Z,45.49
2018-05-25T09:32:09.468Z,43.45
2018-05-25T09:35:32.773Z,42.46
2018-05-25T09:38:56.107Z,42.92
2018-05-25T09:42:20.272Z,42.26
2018-05-25T09:45:44.528Z,42.45
2018-05-25T09:49:07.839Z,41.46
2018-05-25T09:52:31.111Z,40.84
2018-05-25T09:55:54.408Z,40.60
2018-05-25T09:59:17.682Z,40.65
2018-05-25T10:02:40.978Z,40.18
2018-05-25T10:06:04.286Z,39.74
2018-05-25T10:09:28.759Z,38.82
2018-05-25T10:12:52.815Z,37.72
2018-05-25T10:16:16.076Z,37.79
2018-05-25T10:27:38.106Z,35.39
2018-05-25T10:31:02.205Z,35.15
2018-05-25T10:34:25.522Z,35.03
2018-05-25T10:37:49.712Z,34.99
2018-05-25T10:41:13.806Z,34.84
2018-05-25T10:44:37.118Z,36.03
2018-05-25T10:48:00.434Z,34.94
2018-05-25T10:51:23.719Z,36.70
2018-05-25T10:54:47.023Z,34.93
2018-05-25T10:58:10.328Z,35.56
2018-05-25T11:01:33.674Z,36.63
2018-05-25T11:04:57.005Z,36.69
2018-05-25T11:08:20.476Z,34.67
2018-05-25T11:11:43.792Z,35.26
2018-05-25T11:15:07.267Z,37.17
2018-05-25T11:18:30.544Z,37.55
2018-05-25T11:21:53.987Z,35.56
2018-05-25T11:25:17.319Z,34.42
2018-05-25T11:28:40.640Z,33.32
2018-05-25T11:32:03.943Z,32.80
2018-05-25T11:35:27.781Z,32.80
2018-05-25T11:38:51.063Z,32.31
2018-05-25T11:42:14.334Z,32.88
2018-05-25T11:45:37.612Z,32.79
2018-05-25T11:49:01.083Z,32.54
2018-05-25T11:52:24.378Z,32.06
2018-05-25T11:55:48.534Z,31.61
2018-05-25T11:59:11.829Z,30.11
2018-05-25T12:02:35.110Z,30.04
2018-05-25T12:05:58.614Z,30.36
2018-05-25T12:09:22.258Z,30.08
2018-05-25T12:12:45.537Z,29.51
2018-05-25T12:16:09.024Z,29.17
2018-05-25T12:19:33.076Z,29.03
2018-05-25T12:22:56.374Z,28.82
2018-05-25T12:26:19.641Z,28.25
2018-05-25T12:29:42.926Z,27.79
2018-05-25T12:33:06.270Z,26.83
2018-05-25T12:36:29.552Z,26.22
2018-05-25T12:39:52.901Z,26.38
2018-05-25T12:43:16.219Z,26.23
2018-05-25T12:46:39.558Z,25.07
2018-05-25T12:50:03.648Z,25.50
2018-05-25T12:53:26.946Z,24.41
2018-05-25T12:56:50.352Z,25.45
2018-05-25T13:00:14.102Z,24.32
2018-05-25T13:03:37.400Z,24.70
2018-05-25T13:07:00.703Z,25.04
2018-05-25T13:10:24.024Z,24.98
2018-05-25T13:13:47.309Z,24.88
2018-05-25T13:17:10.569Z,24.21
2018-05-25T13:20:33.927Z,23.42
2018-05-25T13:23:57.227Z,23.78
2018-05-25T13:27:21.335Z,23.61
2018-05-25T13:30:44.701Z,23.36
2018-05-25T13:34:08.059Z,23.01
2018-05-25T13:37:31.528Z,22.75
2018-05-25T13:40:54.834Z,22.66
2018-05-25T13:44:18.127Z,22.62
2018-05-25T13:47:41.619Z,22.71
2018-05-25T13:51:04.935Z,22.79
2018-05-25T13:54:28.301Z,23.31
2018-05-25T13:57:51.573Z,23.43
2018-05-25T14:01:14.849Z,22.96
2018-05-25T14:04:38.903Z,23.05
2018-05-25T14:08:02.198Z,22.74
2018-05-25T14:11:25.504Z,22.40
2018-05-25T14:14:48.798Z,22.51
2018-05-25T14:18:12.831Z,21.83
2018-05-25T14:21:36.113Z,21.98
2018-05-25T14:24:59.478Z,22.90
2018-05-25T14:28:22.760Z,22.04
2018-05-25T14:31:46.090Z,22.35
2018-05-25T14:35:09.379Z,21.62
2018-05-25T14:38:33.409Z,21.61
2018-05-25T14:41:56.698Z,21.07
2018-05-25T14:45:20.094Z,20.52
2018-05-25T14:48:43.533Z,20.70
2018-05-25T14:52:07.023Z,19.91
2018-05-25T14:55:30.440Z,20.36
2018-05-25T14:58:53.747Z,19.34
2018-05-25T15:02:17.077Z,19.80
2018-05-25T15:05:40.484Z,19.37
2018-05-25T15:09:03.752Z,19.36
2018-05-25T15:12:27.804Z,19.18
2018-05-25T15:15:51.122Z,19.08
2018-05-25T15:19:14.396Z,18.92
2018-05-25T15:22:37.679Z,19.02
2018-05-25T15:26:01.097Z,19.56
2018-05-25T15:29:24.466Z,19.15
2018-05-25T15:32:48.533Z,19.32
2018-05-25T15:36:11.801Z,18.83
2018-05-25T15:39:35.281Z,18.54
2018-05-25T15:42:59.088Z,17.91
2018-05-25T15:46:22.930Z,18.58
2018-05-25T15:49:48.682Z,18.50
2018-05-25T15:53:12.497Z,18.44
2018-05-25T15:56:38.074Z,18.59
2018-05-25T16:00:01.505Z,18.00
2018-05-25T16:03:24.922Z,17.41
2018-05-25T16:06:48.627Z,18.48
2018-05-25T16:10:12.005Z,18.91
2018-05-25T16:13:35.490Z,18.84
2018-05-25T16:16:59.072Z,18.40
2018-05-25T16:20:22.335Z,18.78
2018-05-25T16:23:48.056Z,19.19
2018-05-25T16:27:13.422Z,19.68
2018-05-25T16:30:36.864Z,19.28
2018-05-25T16:34:00.271Z,19.67
2018-05-25T16:37:23.703Z,19.81
2018-05-25T16:40:47.096Z,20.17
2018-05-25T16:44:12.757Z,21.17
2018-05-25T16:47:38.248Z,21.95
2018-05-25T16:51:01.581Z,21.69
2018-05-25T16:54:25.036Z,21.25
2018-05-25T16:57:48.483Z,21.04
2018-05-25T17:01:11.957Z,22.05
2018-05-25T17:04:35.361Z,22.51
2018-05-25T17:07:58.773Z,21.88
2018-05-25T17:11:22.159Z,22.61
2018-05-25T17:14:47.664Z,22.12
2018-05-25T17:18:11.191Z,22.39
2018-05-25T17:21:35.981Z,21.87
2018-05-25T17:25:00.099Z,22.56
2018-05-25T17:28:23.499Z,22.58
2018-05-25T17:31:48.443Z,22.19
2018-05-25T17:35:12.555Z,21.70
2018-05-25T17:38:35.875Z,22.32
2018-05-25T17:41:59.327Z,21.67
2018-05-25T17:45:22.915Z,22.63
2018-05-25T17:48:46.239Z,22.65
2018-05-25T17:52:09.586Z,22.95
2018-05-25T17:55:35.355Z,23.32
2018-05-25T17:58:58.632Z,22.86
2018-05-25T18:02:23.550Z,22.68
2018-05-25T18:05:48.153Z,22.91
2018-05-25T18:09:13.039Z,22.88
2018-05-25T18:12:37.975Z,22.87
2018-05-25T18:16:01.389Z,22.73
2018-05-25T18:19:26.231Z,23.39
2018-05-25T18:22:49.759Z,23.77
2018-05-25T18:26:13.329Z,24.79
2018-05-25T18:29:37.845Z,24.96
2018-05-25T18:33:01.255Z,25.55
2018-05-25T18:36:24.646Z,26.15
2018-05-25T18:39:50.326Z,26.66
2018-05-25T18:43:13.690Z,26.97
2018-05-25T18:46:37.052Z,29.25
2018-05-25T18:50:00.522Z,31.19
2018-05-25T18:53:24.096Z,31.62
2018-05-25T18:56:47.648Z,33.76
2018-05-25T19:00:13.042Z,34.04
2018-05-25T19:03:38.635Z,34.65
2018-05-25T19:07:02.615Z,35.54
2018-05-25T19:10:26.883Z,35.63
2018-05-25T19:18:20.668Z,36.50
2018-05-25T19:21:44.893Z,37.28
2018-05-25T19:25:08.839Z,37.29
2018-05-25T19:28:34.065Z,37.98
2018-05-25T19:31:57.924Z,39.78
2018-05-25T19:35:23.017Z,40.13
2018-05-25T19:38:46.622Z,41.47
2018-05-25T19:42:09.948Z,41.41
2018-05-25T19:45:33.369Z,41.64
2018-05-25T19:48:58.889Z,40.72
2018-05-25T19:52:22.348Z,41.32
2018-05-25T19:55:45.788Z,41.24
2018-05-25T19:59:09.210Z,41.04
2018-05-25T20:02:32.619Z,41.25
2018-05-25T20:05:58.163Z,41.81
2018-05-25T20:09:21.627Z,42.59
2018-05-25T20:12:45.017Z,42.94
2018-05-25T20:16:08.613Z,43.31
2018-05-25T20:19:35.458Z,43.87
2018-05-25T20:22:59.544Z,43.11
2018-05-25T20:26:22.865Z,43.80
2018-05-25T20:29:46.300Z,43.74
2018-05-25T20:33:09.774Z,45.40
2018-05-25T20:36:35.429Z,44.49
2018-05-25T20:39:58.810Z,45.40
2018-05-25T20:43:24.494Z,45.03
2018-05-25T20:46:47.820Z,45.70
2018-05-25T20:50:11.282Z,45.49
2018-05-25T20:53:34.886Z,45.55
2018-05-25T20:56:59.649Z,46.74
2018-05-25T21:00:23.841Z,46.04
2018-05-25T21:03:49.305Z,45.21
2018-05-25T21:07:12.684Z,45.50
2018-05-25T21:10:36.105Z,45.75
2018-05-25T21:13:59.588Z,45.82
2018-05-25T21:17:22.976Z,46.78
2018-05-25T21:20:46.534Z,46.34
2018-05-25T21:24:09.888Z,46.79
2018-05-25T21:27:33.394Z,47.72
2018-05-25T21:30:56.724Z,47.63
2018-05-25T21:34:20.156Z,48.40
2018-05-25T21:37:43.743Z,48.53
2018-05-25T21:41:07.029Z,48.46
2018-05-25T21:44:32.014Z,48.95
2018-05-25T21:47:56.072Z,49.52
2018-05-25T21:51:19.633Z,49.55
2018-05-25T21:54:43.023Z,49.63
2018-05-25T21:58:06.570Z,50.00
2018-05-25T22:01:30.067Z,50.89
2018-05-25T22:04:53.496Z,49.85
2018-05-25T22:08:16.948Z,50.60
2018-05-25T22:11:40.364Z,50.88
2018-05-25T22:15:03.800Z,51.94
2018-05-25T22:18:27.283Z,51.89
2018-05-25T22:21:50.680Z,52.39
2018-05-25T22:25:14.092Z,52.36
2018-05-25T22:28:38.956Z,52.32
2018-05-25T22:32:03.023Z,52.18
2018-05-25T22:35:26.440Z,52.02
2018-05-25T22:38:51.967Z,52.04
2018-05-25T22:42:33.110Z,51.33
2018-05-25T22:46:15.379Z,51.42
2018-05-25T22:49:57.667Z,51.51
2018-05-25T22:53:27.219Z,51.43
2018-05-25T22:56:52.116Z,51.44
2018-05-25T23:00:15.540Z,52.49
2018-05-25T23:03:39.241Z,52.92
2018-05-25T23:07:02.937Z,53.46
2018-05-25T23:10:28.216Z,54.73
2018-05-25T23:13:51.643Z,54.84
2018-05-25T23:17:15.123Z,55.30
2018-05-25T23:20:38.532Z,56.15
2018-05-25T23:24:01.964Z,55.51
2018-05-25T23:27:25.382Z,56.15
2018-05-25T23:30:48.818Z,56.25
2018-05-25T23:34:14.379Z,55.22
2018-05-25T23:37:37.762Z,55.19
2018-05-25T23:41:01.261Z,55.86
2018-05-25T23:44:24.634Z,55.85
2018-05-25T23:47:50.368Z,55.56
2018-05-25T23:51:15.729Z,56.52
2018-05-25T23:54:39.145Z,56.47
2018-05-25T23:58:02.541Z,56.96
